Time;durP1;ratioP1;P1;durP2;ratioP2;P2;SDS_P1;SDS_P2;PMS_P1;PMS_P2;Temp;Humidity;BMP_temperature;BMP_pressure;BME280_temperature;BME280_humidity;BME280_pressure;Samples;Min_cycle;Max_cycle;Signal;HPM_P1;HPM_P2
2022/08/28 00:01:04;;;;;;;7.27;5.87;;;20.00;99.90;;;;;;5117910;28;20731;-70
2022/08/28 00:03:32;;;;;;;8.13;5.33;;;20.00;99.90;;;;;;5118493;28;20772;-70
2022/08/28 00:06:01;;;;;;;7.53;6.00;;;20.10;99.90;;;;;;5116351;28;20477;-70
2022/08/28 00:08:29;;;;;;;9.43;5.90;;;20.20;99.90;;;;;;5118105;28;20441;-70
2022/08/28 00:10:57;;;;;;;5.80;5.20;;;20.20;99.90;;;;;;5118100;28;20492;-71
2022/08/28 00:13:25;;;;;;;8.10;5.53;;;20.10;99.90;;;;;;5118683;28;21086;-70
2022/08/28 00:15:55;;;;;;;5.00;4.60;;;20.10;99.90;;;;;;5117354;28;20554;-71
2022/08/28 00:18:22;;;;;;;6.80;5.37;;;20.10;99.90;;;;;;5118208;28;21463;-71
2022/08/28 00:20:50;;;;;;;6.40;4.83;;;20.10;99.90;;;;;;5117839;28;20547;-70
2022/08/28 00:23:19;;;;;;;6.70;4.53;;;20.20;99.90;;;;;;5118118;28;20894;-71
2022/08/28 00:25:46;;;;;;;4.90;3.43;;;20.30;99.90;;;;;;5116420;28;20941;-70
2022/08/28 00:28:12;;;;;;;6.70;4.50;;;20.40;99.90;;;;;;5118969;28;20500;-71
2022/08/28 00:30:42;;;;;;;4.93;4.10;;;20.40;99.90;;;;;;5117017;28;20452;-70
2022/08/28 00:33:11;;;;;;;7.20;4.60;;;20.40;99.90;;;;;;5118546;28;20453;-71
2022/08/28 00:35:39;;;;;;;6.00;3.87;;;20.30;99.90;;;;;;5115414;28;20483;-69
2022/08/28 00:38:07;;;;;;;5.57;4.30;;;20.30;99.90;;;;;;5118571;28;20483;-70
2022/08/28 00:40:35;;;;;;;6.27;3.63;;;20.20;99.90;;;;;;5116275;28;20453;-70
2022/08/28 00:43:04;;;;;;;5.90;4.00;;;20.20;99.90;;;;;;5119633;28;20464;-70
2022/08/28 00:45:32;;;;;;;4.80;4.30;;;20.30;99.90;;;;;;5115826;28;20517;-71
2022/08/28 00:47:59;;;;;;;5.67;4.97;;;20.30;99.90;;;;;;5119757;28;20488;-71
2022/08/28 00:50:28;;;;;;;9.20;5.23;;;20.30;99.90;;;;;;5117361;28;20499;-70
2022/08/28 00:52:58;;;;;;;5.33;4.53;;;20.20;99.90;;;;;;5118968;28;20790;-70
2022/08/28 00:55:29;;;;;;;6.10;4.30;;;20.10;99.90;;;;;;5117744;28;20927;-71
2022/08/28 00:57:59;;;;;;;5.93;4.50;;;20.10;99.90;;;;;;5118185;28;20467;-70
2022/08/28 01:00:29;;;;;;;5.77;4.43;;;20.00;99.90;;;;;;5116004;28;20757;-70
2022/08/28 01:02:56;;;;;;;4.93;3.87;;;20.00;99.90;;;;;;5117181;28;20933;-70
2022/08/28 01:05:24;;;;;;;4.67;3.70;;;20.00;99.90;;;;;;5114297;28;20579;-70
2022/08/28 01:07:52;;;;;;;3.40;3.00;;;19.90;99.90;;;;;;5117101;28;20444;-70
2022/08/28 01:10:26;;;;;;;7.63;3.90;;;19.90;99.90;;;;;;5116616;28;20456;-71
2022/08/28 01:12:55;;;;;;;5.40;4.60;;;20.00;99.90;;;;;;5118653;28;20530;-71
2022/08/28 01:15:28;;;;;;;5.20;4.70;;;20.00;99.90;;;;;;5117682;28;20492;-72
2022/08/28 01:17:59;;;;;;;5.03;4.10;;;20.00;99.90;;;;;;5119002;28;20782;-71
2022/08/28 01:20:30;;;;;;;4.70;4.20;;;20.00;99.90;;;;;;5115981;28;20876;-70
2022/08/28 01:23:06;;;;;;;5.83;5.20;;;19.90;99.90;;;;;;5117895;28;20444;-71
2022/08/28 01:25:37;;;;;;;6.37;4.23;;;19.90;99.90;;;;;;5115264;28;20459;-70
2022/08/28 01:28:07;;;;;;;4.10;3.23;;;19.90;99.90;;;;;;5118770;28;20437;-70
2022/08/28 01:30:34;;;;;;;7.17;4.90;;;20.00;99.90;;;;;;5115129;28;20453;-70
2022/08/28 01:33:01;;;;;;;5.50;5.00;;;20.00;99.90;;;;;;5118254;28;20449;-70
2022/08/28 01:35:30;;;;;;;5.07;4.10;;;20.00;99.90;;;;;;5115929;28;20524;-70
2022/08/28 01:37:57;;;;;;;6.27;4.30;;;19.90;99.90;;;;;;5118659;28;20501;-70
2022/08/28 01:40:27;;;;;;;6.10;4.50;;;19.90;99.90;;;;;;5115331;28;20456;-70
2022/08/28 01:42:56;;;;;;;6.23;3.87;;;19.80;99.90;;;;;;5118707;28;20451;-70
2022/08/28 01:45:25;;;;;;;5.50;3.70;;;19.90;99.90;;;;;;5114600;28;20444;-70
2022/08/28 01:47:52;;;;;;;7.13;4.63;;;19.90;99.90;;;;;;5117118;28;20449;-70
2022/08/28 01:50:21;;;;;;;8.63;5.20;;;19.90;99.90;;;;;;5114756;28;20745;-70
2022/08/28 01:52:48;;;;;;;7.37;3.37;;;19.90;99.90;;;;;;5116406;28;20455;-69
2022/08/28 01:55:15;;;;;;;5.47;3.77;;;20.00;99.90;;;;;;5114364;28;20962;-70
2022/08/28 01:57:44;;;;;;;4.50;4.10;;;20.00;99.90;;;;;;5116969;28;21125;-70
2022/08/28 02:00:14;;;;;;;4.07;3.67;;;20.00;99.90;;;;;;5115283;28;20527;-71
2022/08/28 02:02:41;;;;;;;5.60;4.03;;;20.10;99.90;;;;;;5118021;28;20539;-71
2022/08/28 02:05:10;;;;;;;5.30;3.83;;;20.10;99.90;;;;;;5115980;28;20455;-71
2022/08/28 02:07:37;;;;;;;5.17;3.87;;;20.10;99.90;;;;;;5118354;28;20468;-71
2022/08/28 02:10:05;;;;;;;4.63;3.37;;;20.10;99.90;;;;;;5115920;28;20818;-70
2022/08/28 02:12:32;;;;;;;6.10;4.33;;;20.10;99.90;;;;;;5118175;28;20774;-70
2022/08/28 02:14:58;;;;;;;3.80;3.37;;;20.10;99.90;;;;;;5116085;28;20441;-71
2022/08/28 02:17:27;;;;;;;4.77;4.03;;;20.20;99.90;;;;;;5118167;28;20490;-70
2022/08/28 02:19:54;;;;;;;5.20;4.40;;;20.20;99.90;;;;;;5117472;28;20441;-70
2022/08/28 02:22:21;;;;;;;4.57;3.60;;;20.20;99.90;;;;;;5117699;28;20743;-70
2022/08/28 02:24:48;;;;;;;4.33;3.90;;;20.20;99.90;;;;;;5117626;28;20537;-71
2022/08/28 02:27:15;;;;;;;6.13;5.57;;;20.30;99.90;;;;;;5116114;28;20555;-71
2022/08/28 02:29:42;;;;;;;7.03;5.10;;;20.40;99.90;;;;;;5116855;28;20449;-71
2022/08/28 02:32:10;;;;;;;6.47;5.23;;;20.40;99.90;;;;;;5115936;28;20879;-71
2022/08/28 02:34:40;;;;;;;5.43;3.53;;;20.40;99.90;;;;;;5116498;28;20448;-70
2022/08/28 02:37:10;;;;;;;6.10;4.73;;;20.30;99.90;;;;;;5115936;28;20542;-71
2022/08/28 02:39:37;;;;;;;5.60;4.37;;;20.30;99.90;;;;;;5117497;28;20910;-70
2022/08/28 02:42:04;;;;;;;7.30;5.37;;;20.30;99.90;;;;;;5115989;28;20495;-71
2022/08/28 02:44:31;;;;;;;6.73;4.97;;;20.30;99.90;;;;;;5117537;28;20444;-71
2022/08/28 02:46:59;;;;;;;6.67;5.97;;;20.10;99.90;;;;;;5116280;28;20539;-70
2022/08/28 02:49:26;;;;;;;9.03;6.33;;;19.90;99.90;;;;;;5117284;28;20445;-70
2022/08/28 02:51:55;;;;;;;7.57;5.10;;;19.80;99.90;;;;;;5116414;28;20452;-71
2022/08/28 02:54:22;;;;;;;6.87;4.50;;;19.70;99.90;;;;;;5116982;28;20480;-70
2022/08/28 02:56:49;;;;;;;9.37;5.23;;;19.70;99.90;;;;;;5114445;28;20707;-70
2022/08/28 02:59:16;;;;;;;6.63;5.93;;;19.70;99.90;;;;;;5116904;28;20444;-70
2022/08/28 03:01:43;;;;;;;6.17;4.93;;;19.80;99.90;;;;;;5114974;28;20461;-69
2022/08/28 03:04:10;;;;;;;7.67;5.40;;;19.80;99.90;;;;;;5117078;28;20479;-69
2022/08/28 03:06:37;;;;;;;7.73;4.30;;;19.70;99.90;;;;;;5114399;28;20472;-70
2022/08/28 03:09:05;;;;;;;8.27;5.73;;;19.80;99.90;;;;;;5116775;28;20494;-71
2022/08/28 03:11:32;;;;;;;7.17;5.03;;;19.80;99.90;;;;;;5114096;28;20452;-70
2022/08/28 03:14:02;;;;;;;7.07;6.13;;;19.70;99.90;;;;;;5116746;28;20747;-69
2022/08/28 03:16:29;;;;;;;9.10;5.90;;;19.80;99.90;;;;;;5115332;28;20480;-70
2022/08/28 03:18:56;;;;;;;5.93;5.13;;;19.90;99.90;;;;;;5117506;28;20445;-70
2022/08/28 03:21:23;;;;;;;11.27;8.10;;;19.90;99.90;;;;;;5114585;28;20444;-71
2022/08/28 03:23:50;;;;;;;5.77;4.80;;;19.90;99.90;;;;;;5117156;28;20794;-70
2022/08/28 03:26:20;;;;;;;7.10;5.70;;;19.90;99.90;;;;;;5115286;28;20488;-71
2022/08/28 03:28:50;;;;;;;8.17;6.17;;;19.90;99.90;;;;;;5117346;28;20449;-71
2022/08/28 03:31:20;;;;;;;8.17;6.53;;;20.00;99.90;;;;;;5115182;28;20470;-71
2022/08/28 03:33:48;;;;;;;6.93;4.83;;;20.00;99.90;;;;;;5118770;28;20532;-71
2022/08/28 03:36:20;;;;;;;7.07;4.40;;;20.00;99.90;;;;;;5118202;28;20517;-71
2022/08/28 03:38:47;;;;;;;5.97;3.80;;;20.00;99.90;;;;;;5120406;28;20936;-71
2022/08/28 03:41:16;;;;;;;5.17;4.00;;;20.00;99.90;;;;;;5117754;28;20457;-70
2022/08/28 03:43:45;;;;;;;5.50;4.47;;;19.90;99.90;;;;;;5120670;28;20444;-70
2022/08/28 03:46:14;;;;;;;8.00;6.00;;;19.90;99.90;;;;;;5117769;28;20524;-69
2022/08/28 03:48:42;;;;;;;6.17;5.30;;;19.80;99.90;;;;;;5120323;28;20487;-69
2022/08/28 03:51:12;;;;;;;7.67;6.23;;;19.90;99.90;;;;;;5118359;28;20453;-71
2022/08/28 03:53:40;;;;;;;6.63;5.90;;;19.90;99.90;;;;;;5119748;28;20497;-72
2022/08/28 03:56:08;;;;;;;12.53;6.50;;;19.90;99.90;;;;;;5118262;28;20570;-70
2022/08/28 03:58:35;;;;;;;8.87;7.47;;;19.80;99.90;;;;;;5119074;28;20484;-70
2022/08/28 04:01:04;;;;;;;6.50;5.13;;;19.70;99.90;;;;;;5118117;28;20520;-72
2022/08/28 04:03:31;;;;;;;7.20;5.43;;;19.60;99.90;;;;;;5119527;28;20521;-70
2022/08/28 04:05:58;;;;;;;6.97;5.00;;;19.70;99.90;;;;;;5118258;28;20472;-71
2022/08/28 04:08:26;;;;;;;8.57;5.93;;;19.80;99.90;;;;;;5120118;28;20448;-69
2022/08/28 04:10:53;;;;;;;7.43;4.20;;;19.90;99.90;;;;;;5117780;28;20496;-70
2022/08/28 04:13:21;;;;;;;8.30;5.07;;;20.00;99.90;;;;;;5120391;28;20838;-71
2022/08/28 04:15:57;;;;;;;11.53;6.43;;;20.00;99.90;;;;;;5117894;28;20918;-70
2022/08/28 04:18:25;;;;;;;6.77;4.37;;;20.10;99.90;;;;;;5120927;28;20744;-70
2022/08/28 04:20:58;;;;;;;9.50;6.07;;;20.10;99.90;;;;;;5116825;28;20569;-70
2022/08/28 04:23:26;;;;;;;6.00;4.87;;;20.00;99.90;;;;;;5119639;28;20445;-70
2022/08/28 04:25:55;;;;;;;7.47;5.60;;;19.90;99.90;;;;;;5115765;28;20457;-71
2022/08/28 04:28:22;;;;;;;7.53;5.40;;;19.90;99.90;;;;;;5119806;28;20536;-72
2022/08/28 04:30:51;;;;;;;7.03;5.20;;;20.00;99.90;;;;;;5118390;28;20547;-71
2022/08/28 04:33:18;;;;;;;6.20;4.00;;;20.00;99.90;;;;;;5118698;28;20445;-71
2022/08/28 04:35:46;;;;;;;6.03;4.10;;;19.90;99.90;;;;;;5115882;28;20883;-70
2022/08/28 04:38:13;;;;;;;7.63;5.07;;;19.90;99.90;;;;;;5119352;28;20472;-70
2022/08/28 04:40:41;;;;;;;7.57;5.67;;;19.90;99.90;;;;;;5116730;28;20513;-70
2022/08/28 04:43:09;;;;;;;4.20;3.57;;;20.00;99.90;;;;;;5119324;28;20445;-70
2022/08/28 04:45:38;;;;;;;7.03;4.97;;;20.00;99.90;;;;;;5116213;28;20484;-70
2022/08/28 04:48:06;;;;;;;5.27;3.20;;;19.90;99.90;;;;;;5119727;28;20487;-71
2022/08/28 04:50:33;;;;;;;5.37;4.00;;;20.00;99.90;;;;;;5116796;28;20457;-70
2022/08/28 04:53:02;;;;;;;5.57;4.37;;;20.00;99.90;;;;;;5119649;28;20864;-71
2022/08/28 04:55:28;;;;;;;7.30;4.77;;;19.90;99.90;;;;;;5117574;28;20543;-70
2022/08/28 04:57:55;;;;;;;5.30;3.13;;;19.80;99.90;;;;;;5118809;28;20480;-71
2022/08/28 05:00:23;;;;;;;5.20;4.80;;;19.70;99.90;;;;;;5117031;28;20806;-71
2022/08/28 05:02:50;;;;;;;7.50;4.23;;;19.70;99.90;;;;;;5118808;28;20444;-71
2022/08/28 05:05:17;;;;;;;10.83;4.50;;;19.70;99.90;;;;;;5116042;28;20457;-70
2022/08/28 05:07:44;;;;;;;5.70;4.37;;;19.80;99.90;;;;;;5118133;28;20448;-70
2022/08/28 05:10:13;;;;;;;7.80;5.07;;;19.90;99.90;;;;;;5115536;28;20444;-71
2022/08/28 05:12:40;;;;;;;8.63;5.60;;;19.90;99.90;;;;;;5118320;28;20455;-71
2022/08/28 05:15:09;;;;;;;6.00;4.90;;;19.90;99.90;;;;;;5115091;28;20907;-70
2022/08/28 05:17:36;;;;;;;7.07;4.80;;;20.00;99.90;;;;;;5117561;28;20530;-71
2022/08/28 05:20:04;;;;;;;6.50;4.70;;;20.10;99.90;;;;;;5116620;28;20445;-72
2022/08/28 05:22:31;;;;;;;7.57;6.07;;;20.00;99.90;;;;;;5118473;28;20437;-71
2022/08/28 05:24:59;;;;;;;8.50;4.53;;;19.90;99.90;;;;;;5115045;28;20535;-71
2022/08/28 05:27:28;;;;;;;6.47;5.00;;;19.90;99.90;;;;;;5118599;28;20445;-71
2022/08/28 05:29:55;;;;;;;9.73;6.73;;;19.90;99.90;;;;;;5116173;28;20433;-71
2022/08/28 05:32:22;;;;;;;5.63;4.73;;;19.90;99.90;;;;;;5117741;28;20445;-70
2022/08/28 05:34:49;;;;;;;6.47;4.93;;;19.90;99.90;;;;;;5117911;28;20449;-71
2022/08/28 05:37:16;;;;;;;7.40;4.63;;;20.00;99.90;;;;;;5115539;28;20485;-71
2022/08/28 05:39:43;;;;;;;5.67;4.50;;;19.90;99.90;;;;;;5117969;28;20919;-71
2022/08/28 05:42:10;;;;;;;6.50;5.63;;;20.00;99.90;;;;;;5116297;28;20827;-71
2022/08/28 05:44:38;;;;;;;7.07;5.10;;;20.10;99.90;;;;;;5117900;28;20451;-72
2022/08/28 05:47:05;;;;;;;6.40;4.97;;;20.00;99.90;;;;;;5116245;28;20937;-72
2022/08/28 05:49:32;;;;;;;6.53;3.93;;;19.90;99.90;;;;;;5117586;28;20502;-71
2022/08/28 05:51:59;;;;;;;6.07;3.80;;;19.90;99.90;;;;;;5115458;28;20548;-71
2022/08/28 05:54:26;;;;;;;5.17;3.57;;;19.90;99.90;;;;;;5117605;28;20485;-71
2022/08/28 05:56:53;;;;;;;5.33;3.90;;;20.10;99.90;;;;;;5114844;28;20689;-71
2022/08/28 05:59:20;;;;;;;5.83;3.77;;;20.20;99.90;;;;;;5117494;28;20446;-71
2022/08/28 06:01:49;;;;;;;5.80;4.43;;;20.40;99.90;;;;;;5115239;28;20461;-71
2022/08/28 06:04:21;;;;;;;7.20;3.97;;;20.40;99.90;;;;;;5117351;28;20445;-71
2022/08/28 06:06:48;;;;;;;3.63;3.03;;;20.40;99.90;;;;;;5115470;28;20483;-71
2022/08/28 06:09:19;;;;;;;4.73;4.30;;;20.40;99.90;;;;;;5117703;28;20448;-71
2022/08/28 06:11:46;;;;;;;5.20;3.80;;;20.50;99.90;;;;;;5117531;28;20506;-71
2022/08/28 06:14:15;;;;;;;5.40;3.60;;;20.40;99.90;;;;;;5117470;28;20437;-72
2022/08/28 06:16:44;;;;;;;5.77;4.00;;;20.40;99.90;;;;;;5116587;28;20541;-71
2022/08/28 06:19:13;;;;;;;7.50;4.67;;;20.30;99.90;;;;;;5117917;28;20822;-71
2022/08/28 06:21:41;;;;;;;5.17;3.80;;;20.30;99.90;;;;;;5115457;28;20884;-71
2022/08/28 06:24:09;;;;;;;3.83;2.83;;;20.40;99.90;;;;;;5117276;28;20812;-71
2022/08/28 06:26:36;;;;;;;10.93;5.03;;;20.40;99.90;;;;;;5114470;28;20900;-72
2022/08/28 06:29:06;;;;;;;6.10;4.20;;;20.40;99.90;;;;;;5116993;28;20849;-73
2022/08/28 06:31:35;;;;;;;4.73;3.40;;;20.40;99.90;;;;;;5116799;28;20510;-71
2022/08/28 06:34:02;;;;;;;9.10;4.20;;;20.40;99.90;;;;;;5119353;28;20876;-74
2022/08/28 06:36:33;;;;;;;6.00;4.07;;;20.50;99.90;;;;;;5118362;28;20480;-75
2022/08/28 06:39:02;;;;;;;5.90;3.43;;;20.50;99.90;;;;;;5119805;28;20429;-75
2022/08/28 06:41:30;;;;;;;3.80;2.80;;;20.40;99.90;;;;;;5117422;28;20448;-75
2022/08/28 06:43:58;;;;;;;4.63;3.60;;;20.50;99.90;;;;;;5119253;28;20516;-75
2022/08/28 06:46:29;;;;;;;4.40;2.90;;;20.70;99.90;;;;;;5116650;28;20942;-75
2022/08/28 06:48:56;;;;;;;3.63;2.07;;;20.80;99.90;;;;;;5118902;28;20450;-75
2022/08/28 06:51:23;;;;;;;5.97;2.93;;;20.80;99.90;;;;;;5117047;28;20579;-75
2022/08/28 06:53:52;;;;;;;3.03;2.30;;;20.80;99.90;;;;;;5119773;28;20482;-75
2022/08/28 06:56:21;;;;;;;3.47;2.73;;;20.80;99.90;;;;;;5116871;28;20488;-74
2022/08/28 06:58:49;;;;;;;2.70;1.83;;;20.70;99.90;;;;;;5118853;28;20552;-74
2022/08/28 07:01:21;;;;;;;3.97;2.50;;;20.70;99.90;;;;;;5117866;28;20510;-74
2022/08/28 07:03:49;;;;;;;6.07;4.63;;;20.80;99.90;;;;;;5118273;28;20452;-75
2022/08/28 07:06:17;;;;;;;2.87;2.57;;;20.90;99.90;;;;;;5116700;28;20937;-75
2022/08/28 07:08:44;;;;;;;4.33;3.10;;;21.00;99.90;;;;;;5122424;28;20963;-75
2022/08/28 07:11:15;;;;;;;4.77;3.00;;;21.10;99.90;;;;;;5121494;28;20933;-74
2022/08/28 07:13:43;;;;;;;3.87;2.37;;;21.00;99.90;;;;;;5123609;28;20448;-75
2022/08/28 07:16:14;;;;;;;3.23;2.10;;;21.10;99.90;;;;;;5123631;28;20543;-75
2022/08/28 07:18:41;;;;;;;3.70;2.83;;;21.20;99.90;;;;;;5123041;28;20480;-75
2022/08/28 07:21:08;;;;;;;4.33;3.83;;;21.30;99.90;;;;;;5121051;28;20483;-75
2022/08/28 07:23:37;;;;;;;2.90;2.50;;;21.30;99.90;;;;;;5122995;28;20437;-75
2022/08/28 07:26:06;;;;;;;4.63;3.30;;;21.20;99.90;;;;;;5121115;28;20486;-75
2022/08/28 07:28:35;;;;;;;4.30;2.70;;;21.20;98.50;;;;;;5122207;28;20440;-75
2022/08/28 07:31:04;;;;;;;3.80;2.67;;;21.10;99.90;;;;;;5119714;28;20448;-74
2022/08/28 07:33:32;;;;;;;5.10;2.50;;;21.10;99.90;;;;;;5122928;28;20479;-74
2022/08/28 07:36:00;;;;;;;4.10;2.23;;;21.00;98.30;;;;;;5122105;28;20899;-74
2022/08/28 07:38:27;;;;;;;2.80;2.60;;;20.90;99.90;;;;;;5123669;28;20882;-74
2022/08/28 07:40:55;;;;;;;4.63;2.57;;;20.90;99.90;;;;;;5121547;28;20528;-74
2022/08/28 07:46:10;;;;;;;6.37;3.13;;;20.90;99.90;;;;;;5109209;28;20543;-74
2022/08/28 07:48:38;;;;;;;4.77;2.70;;;20.80;99.90;;;;;;5123703;28;20504;-74
2022/08/28 07:51:07;;;;;;;4.83;2.40;;;20.70;99.90;;;;;;5118300;28;20509;-74
2022/08/28 07:53:34;;;;;;;5.00;2.53;;;20.90;99.90;;;;;;5103880;28;20449;-75
2022/08/28 07:56:01;;;;;;;6.13;2.90;;;20.90;99.90;;;;;;5102526;28;20464;-73
2022/08/28 07:58:28;;;;;;;4.70;3.23;;;21.00;99.90;;;;;;5118086;28;20464;-76
2022/08/28 08:00:55;;;;;;;4.40;3.43;;;21.00;99.90;;;;;;5122407;28;20546;-74
2022/08/28 08:03:24;;;;;;;3.90;2.30;;;21.10;99.90;;;;;;5122325;28;20444;-75
2022/08/28 08:05:55;;;;;;;3.90;2.53;;;21.20;99.90;;;;;;5120542;27;20567;-75
2022/08/28 08:08:22;;;;;;;4.80;2.67;;;21.30;99.90;;;;;;5106979;28;20461;-75
2022/08/28 08:10:57;;;;;;;5.10;2.50;;;21.40;96.80;;;;;;5128715;27;20473;-75
2022/08/28 08:13:24;;;;;;;2.50;2.17;;;21.50;99.90;;;;;;5135385;27;20612;-75
2022/08/28 08:15:51;;;;;;;3.80;3.50;;;21.50;96.00;;;;;;5129127;27;20452;-76
2022/08/28 08:18:18;;;;;;;4.33;3.77;;;21.70;91.00;;;;;;5119403;27;20997;-75
2022/08/28 08:20:47;;;;;;;4.47;2.53;;;21.80;75.50;;;;;;5110295;28;20893;-75
2022/08/28 08:23:14;;;;;;;4.30;2.17;;;21.90;80.00;;;;;;5114291;28;20456;-75
2022/08/28 08:25:41;;;;;;;5.17;3.90;;;22.10;62.70;;;;;;5107512;28;20467;-75
2022/08/28 08:28:08;;;;;;;2.87;1.90;;;22.00;44.80;;;;;;5103122;28;20446;-75
2022/08/28 08:30:35;;;;;;;4.87;2.60;;;22.00;64.00;;;;;;5103512;28;20456;-75
2022/08/28 08:33:02;;;;;;;2.93;2.33;;;22.00;51.00;;;;;;5117487;28;20908;-75
2022/08/28 08:35:29;;;;;;;3.67;3.30;;;22.00;55.70;;;;;;5119781;28;20502;-74
2022/08/28 08:37:58;;;;;;;4.60;3.30;;;22.10;44.90;;;;;;5101788;28;20513;-74
2022/08/28 08:40:24;;;;;;;3.47;2.47;;;21.80;64.50;;;;;;5100303;28;20450;-74
2022/08/28 08:42:55;;;;;;;3.80;2.83;;;21.90;71.00;;;;;;5117703;28;20464;-74
2022/08/28 08:45:28;;;;;;;3.17;2.70;;;22.00;57.60;;;;;;5112802;28;20852;-74
2022/08/28 08:47:55;;;;;;;4.30;3.90;;;22.00;56.90;;;;;;5123907;28;20826;-74
2022/08/28 08:50:25;;;;;;;3.30;1.90;;;22.00;54.60;;;;;;5120954;28;20547;-74
2022/08/28 08:53:10;;;;;;;3.53;2.37;;;21.80;57.00;;;;;;5102872;28;20475;-74
2022/08/28 08:55:44;;;;;;;6.37;2.70;;;21.80;82.10;;;;;;5113666;28;20811;-74
2022/08/28 08:58:15;;;;;;;2.70;1.93;;;22.00;64.60;;;;;;5109262;28;20936;-75
2022/08/28 09:00:54;;;;;;;3.43;2.60;;;22.30;38.60;;;;;;5106102;28;20491;-75
2022/08/28 09:03:25;;;;;;;3.00;1.80;;;22.40;21.30;;;;;;5110154;28;20456;-74
2022/08/28 09:05:56;;;;;;;3.20;3.00;;;22.60;27.30;;;;;;5119859;28;20499;-75
2022/08/28 09:08:34;;;;;;;3.27;2.70;;;22.90;1.00;;;;;;5115742;28;20449;-74
2022/08/28 09:11:04;;;;;;;3.57;3.10;;;23.10;1.00;;;;;;5115573;28;20471;-73
2022/08/28 09:13:41;;;;;;;2.90;2.20;;;23.10;1.00;;;;;;5106313;28;20453;-74
2022/08/28 09:16:27;;;;;;;3.37;3.07;;;23.10;1.00;;;;;;5110139;28;20540;-74
2022/08/28 09:18:58;;;;;;;3.87;1.80;;;23.20;1.00;;;;;;5104606;28;20482;-74
2022/08/28 09:21:28;;;;;;;3.07;2.77;;;23.30;1.00;;;;;;5102871;28;20469;-74
2022/08/28 09:24:01;;;;;;;2.50;1.97;;;23.40;1.00;;;;;;5100385;28;20537;-74
2022/08/28 09:26:28;;;;;;;3.53;2.40;;;23.30;1.00;;;;;;5102490;28;20430;-74
2022/08/28 09:29:04;;;;;;;2.20;1.73;;;23.50;1.00;;;;;;5117872;28;20531;-74
2022/08/28 09:31:35;;;;;;;4.40;2.30;;;23.50;1.00;;;;;;5110306;28;20814;-74
2022/08/28 09:34:31;;;;;;;4.23;2.50;;;23.40;1.00;;;;;;5100331;28;20458;-75
2022/08/28 09:36:59;;;;;;;2.50;2.30;;;23.30;1.00;;;;;;5076248;28;20442;-74
2022/08/28 09:39:39;;;;;;;2.93;2.10;;;23.20;1.00;;;;;;5111265;28;20554;-74
2022/08/28 09:45:06;;;;;;;3.20;2.90;;;23.30;1.00;;;;;;5134741;27;20415;-74
2022/08/28 09:47:52;;;;;;;4.23;2.17;;;23.10;1.00;;;;;;5110633;28;20473;-72
2022/08/28 09:50:26;;;;;;;2.60;2.20;;;23.20;1.00;;;;;;5104335;28;20634;-71
2022/08/28 09:52:57;;;;;;;4.23;3.13;;;23.40;1.00;;;;;;5102141;28;20528;-71
2022/08/28 09:55:33;;;;;;;2.20;2.00;;;23.70;1.00;;;;;;5099527;28;20479;-71
2022/08/28 09:58:00;;;;;;;2.30;1.73;;;24.00;1.00;;;;;;5105429;27;20484;-71
2022/08/28 10:00:31;;;;;;;2.33;2.00;;;24.10;1.00;;;;;;5100988;28;20450;-71
2022/08/28 10:03:05;;;;;;;2.43;1.50;;;24.10;1.00;;;;;;5105429;28;20518;-70
2022/08/28 10:05:38;;;;;;;1.57;1.47;;;24.00;1.00;;;;;;5101690;28;20534;-71
2022/08/28 10:08:17;;;;;;;2.93;1.73;;;24.10;1.00;;;;;;5104439;28;20461;-71
2022/08/28 10:10:50;;;;;;;2.10;1.90;;;24.20;1.00;;;;;;5097414;28;20495;-71
2022/08/28 10:13:23;;;;;;;3.97;2.17;;;24.00;1.00;;;;;;5103451;28;20454;-71
2022/08/28 10:16:17;;;;;;;3.47;2.60;;;23.90;1.00;;;;;;5097167;28;20488;-72
2022/08/28 10:18:49;;;;;;;3.03;2.73;;;23.80;1.00;;;;;;5092741;28;20586;-72
2022/08/28 10:21:23;;;;;;;3.17;2.30;;;23.40;1.00;;;;;;5100141;28;20461;-72
2022/08/28 10:24:14;;;;;;;2.50;2.00;;;23.40;1.00;;;;;;5095682;28;20508;-71
2022/08/28 10:26:51;;;;;;;3.50;2.03;;;23.60;1.00;;;;;;5108435;28;20457;-71
2022/08/28 10:29:29;;;;;;;1.97;1.77;;;23.70;1.00;;;;;;5099050;28;20461;-72
2022/08/28 10:32:13;;;;;;;2.93;1.93;;;23.80;1.00;;;;;;5095799;28;20460;-71
2022/08/28 10:34:49;;;;;;;1.93;1.40;;;24.30;1.00;;;;;;5093441;28;20528;-71
2022/08/28 10:37:24;;;;;;;3.10;1.50;;;24.80;1.00;;;;;;5101654;28;20503;-71
2022/08/28 10:39:56;;;;;;;2.27;1.80;;;25.40;1.00;;;;;;5095124;28;20534;-71
2022/08/28 10:42:32;;;;;;;3.37;1.80;;;25.60;1.00;;;;;;5099662;28;20485;-71
2022/08/28 10:45:04;;;;;;;3.83;2.17;;;25.90;1.00;;;;;;5098776;28;20497;-71
2022/08/28 10:47:33;;;;;;;1.60;1.30;;;26.20;1.00;;;;;;5112690;28;20826;-71
2022/08/28 10:50:05;;;;;;;2.20;1.80;;;26.60;1.00;;;;;;5110776;28;20900;-70
2022/08/28 10:52:37;;;;;;;1.50;1.30;;;27.00;1.00;;;;;;5100336;28;20576;-71
2022/08/28 10:55:11;;;;;;;2.17;1.40;;;26.40;99.90;;;;;;5101765;28;20772;-70
2022/08/28 10:57:44;;;;;;;3.20;1.50;;;26.30;1.00;;;;;;5103382;28;20465;-71
2022/08/28 11:00:16;;;;;;;1.47;1.20;;;26.20;1.00;;;;;;5109120;28;20949;-71
2022/08/28 11:02:48;;;;;;;3.67;1.50;;;26.40;1.00;;;;;;5107571;28;20812;-71
2022/08/28 11:05:19;;;;;;;2.07;1.10;;;25.70;99.90;;;;;;5106211;28;20510;-70
2022/08/28 11:07:50;;;;;;;2.70;1.50;;;25.60;1.00;;;;;;5095553;28;20571;-72
2022/08/28 11:10:40;;;;;;;1.73;1.40;;;25.60;99.90;;;;;;5097253;28;20485;-73
2022/08/28 11:13:09;;;;;;;2.53;1.27;;;25.50;1.00;;;;;;5102296;28;20927;-71
2022/08/28 11:15:53;;;;;;;1.80;1.43;;;25.80;59.30;;;;;;5095220;28;20868;-71
2022/08/28 11:18:55;;;;;;;3.97;1.53;;;25.80;99.90;;;;;;5096087;28;20516;-71
2022/08/28 11:21:27;;;;;;;1.73;1.63;;;25.50;99.90;;;;;;5096406;28;20490;-71
2022/08/28 11:24:03;;;;;;;2.33;1.60;;;25.80;1.00;;;;;;5105480;28;20770;-70
2022/08/28 11:26:39;;;;;;;3.60;1.60;;;26.30;1.00;;;;;;5104101;28;20498;-70
2022/08/28 11:29:09;;;;;;;1.40;1.10;;;26.70;99.90;;;;;;5097816;28;20503;-70
2022/08/28 11:31:41;;;;;;;1.73;1.63;;;26.80;99.90;;;;;;5105044;28;20525;-71
2022/08/28 11:34:08;;;;;;;3.00;1.73;;;27.00;1.00;;;;;;5107220;28;20535;-71
2022/08/28 11:37:01;;;;;;;2.23;1.80;;;26.90;1.00;;;;;;5103010;28;20560;-72
2022/08/28 11:39:28;;;;;;;1.60;1.30;;;26.80;1.00;;;;;;5107428;28;20480;-72
2022/08/28 11:42:33;;;;;;;2.40;1.30;;;26.60;99.90;;;;;;5102794;28;20464;-70
2022/08/28 11:45:02;;;;;;;2.90;1.27;;;26.80;1.00;;;;;;5104983;28;20480;-71
2022/08/28 11:47:55;;;;;;;1.87;1.53;;;26.90;1.00;;;;;;5112295;28;20461;-71
2022/08/28 11:50:29;;;;;;;1.67;1.37;;;27.30;99.90;;;;;;5094970;28;20464;-71
2022/08/28 11:53:29;;;;;;;2.57;1.53;;;27.60;99.90;;;;;;5109555;28;20460;-71
2022/08/28 11:56:24;;;;;;;1.40;1.20;;;27.30;99.90;;;;;;5118354;28;20447;-70
2022/08/28 11:58:57;;;;;;;3.80;1.20;;;27.10;99.90;;;;;;5113363;28;20573;-71
2022/08/28 12:01:34;;;;;;;1.73;1.20;;;27.40;99.90;;;;;;5102076;28;20449;-71
2022/08/28 12:04:04;;;;;;;1.13;1.00;;;27.70;99.90;;;;;;5099341;28;20494;-71
2022/08/28 12:07:20;;;;;;;1.73;1.20;;;27.50;99.90;;;;;;5099402;28;20481;-71
2022/08/28 12:09:49;;;;;;;2.07;1.23;;;27.80;99.90;;;;;;5094084;28;20453;-70
2022/08/28 12:12:52;;;;;;;1.33;1.10;;;27.90;99.90;;;;;;5096423;28;20453;-71
2022/08/28 12:15:40;;;;;;;1.30;1.00;;;27.90;99.90;;;;;;5099082;28;20480;-71
2022/08/28 12:18:16;;;;;;;1.43;1.10;;;28.00;99.90;;;;;;5098695;28;20458;-72
2022/08/28 12:21:01;;;;;;;1.37;1.00;;;28.00;31.20;;;;;;5098693;28;20822;-71
2022/08/28 12:23:40;;;;;;;6.83;1.43;;;28.20;60.00;;;;;;5098400;28;20453;-72
2022/08/28 12:26:12;;;;;;;1.30;1.13;;;28.70;1.00;;;;;;5096995;28;20445;-72
2022/08/28 12:28:46;;;;;;;1.30;1.20;;;29.00;1.00;;;;;;5098087;28;20455;-72
2022/08/28 12:34:34;;;;;;;1.30;1.10;;;28.80;1.00;;;;;;5120281;27;20736;-70
2022/08/28 12:37:03;;;;;;;1.30;1.17;;;28.30;41.30;;;;;;5120162;27;20483;-71
2022/08/28 12:39:32;;;;;;;1.30;1.17;;;28.00;1.00;;;;;;5114544;27;20473;-70
2022/08/28 12:42:01;;;;;;;2.83;1.93;;;27.90;37.70;;;;;;5117860;28;20471;-70
2022/08/28 12:44:32;;;;;;;1.50;1.20;;;27.20;99.90;;;;;;5119749;28;20508;-71
2022/08/28 12:47:00;;;;;;;1.93;1.60;;;27.20;99.90;;;;;;5118297;28;20556;-71
2022/08/28 12:49:31;;;;;;;1.30;1.20;;;27.30;99.90;;;;;;5115404;28;20849;-71
2022/08/28 12:52:14;;;;;;;1.23;1.10;;;27.60;99.90;;;;;;5117364;28;20489;-70
2022/08/28 12:54:41;;;;;;;1.87;1.30;;;27.80;99.90;;;;;;5115343;28;20838;-71
2022/08/28 12:57:14;;;;;;;2.73;1.20;;;27.90;99.90;;;;;;5117138;28;20727;-70
2022/08/28 12:59:44;;;;;;;3.20;1.00;;;27.70;99.90;;;;;;5116827;28;20833;-72
2022/08/28 13:02:18;;;;;;;2.20;1.30;;;27.60;99.90;;;;;;5117587;28;20433;-71
2022/08/28 13:04:57;;;;;;;2.37;1.20;;;27.80;99.90;;;;;;5116357;28;20456;-72
2022/08/28 13:07:28;;;;;;;1.30;1.20;;;27.80;99.90;;;;;;5118912;28;20477;-73
2022/08/28 13:09:57;;;;;;;1.33;1.10;;;28.00;61.30;;;;;;5115101;28;20457;-71
2022/08/28 13:12:27;;;;;;;1.50;1.40;;;27.90;99.90;;;;;;5098780;28;20450;-71
2022/08/28 13:14:54;;;;;;;2.67;1.70;;;28.20;32.60;;;;;;5092116;28;20460;-71